createdAt,value
2022-12-28T00:00:31.119Z,99909.94
2022-12-28T00:03:17.275Z,99887.69
2022-12-28T00:06:04.463Z,99900.88
2022-12-28T00:08:55.042Z,99900.69
2022-12-28T00:11:41.402Z,99892.28
2022-12-28T00:14:27.563Z,99904.63
2022-12-28T00:17:14.296Z,99894.28
2022-12-28T00:20:00.669Z,99884.75
2022-12-28T00:22:47.221Z,99887.56
2022-12-28T00:25:36.575Z,99876.53
2022-12-28T00:28:23.174Z,99865.31
2022-12-28T00:31:09.463Z,99880.03
2022-12-28T00:33:55.893Z,99886.19
2022-12-28T00:37:11.034Z,99877.56
2022-12-28T00:39:49.158Z,99871.44
2022-12-28T00:42:36.341Z,99832.28
2022-12-28T00:45:23.327Z,99854.81
2022-12-28T00:48:09.735Z,99846.47
2022-12-28T00:51:06.127Z,99848.88
2022-12-28T00:53:53.110Z,99847.63
2022-12-28T00:56:42.924Z,99842.63
2022-12-28T00:59:29.453Z,99823.47
2022-12-28T01:02:15.746Z,99822.69
2022-12-28T01:05:02.204Z,99821.47
2022-12-28T01:07:49.312Z,99797.00
2022-12-28T01:10:39.182Z,99808.22
2022-12-28T01:13:25.780Z,99826.94
2022-12-28T01:16:34.280Z,99808.91
2022-12-28T01:19:22.348Z,99820.97
2022-12-28T01:22:10.208Z,99817.81
2022-12-28T01:24:56.650Z,99811.25
2022-12-28T01:27:42.888Z,99809.78
2022-12-28T01:30:30.505Z,99803.13
2022-12-28T01:33:17.938Z,99798.47
2022-12-28T01:36:24.862Z,99791.63
2022-12-28T01:39:11.366Z,99794.16
2022-12-28T01:41:57.558Z,99777.34
2022-12-28T01:44:46.843Z,99775.09
2022-12-28T01:47:35.195Z,99758.56
2022-12-28T01:50:27.981Z,99775.91
2022-12-28T01:53:14.545Z,99768.66
2022-12-28T01:56:01.037Z,99752.69
2022-12-28T01:58:48.421Z,99764.44
2022-12-28T02:01:35.314Z,99751.38
2022-12-28T02:04:21.681Z,99742.75
2022-12-28T02:07:07.898Z,99749.94
2022-12-28T02:10:42.646Z,99723.53
2022-12-28T02:13:01.045Z,99732.47
2022-12-28T02:15:47.897Z,99732.50
2022-12-28T02:18:34.315Z,99737.84
2022-12-28T02:21:26.155Z,99709.41
2022-12-28T02:24:34.845Z,99722.50
2022-12-28T02:27:40.026Z,99716.06
2022-12-28T02:30:26.592Z,99707.75
2022-12-28T02:33:21.395Z,99697.84
2022-12-28T02:36:20.848Z,99697.69
2022-12-28T02:39:18.359Z,99691.88
2022-12-28T02:42:09.667Z,99671.06
2022-12-28T02:45:15.684Z,99685.31
2022-12-28T02:48:21.114Z,99675.63
2022-12-28T02:51:35.227Z,99662.53
2022-12-28T02:54:55.738Z,99643.00
2022-12-28T02:57:51.652Z,99643.56
2022-12-28T03:01:01.437Z,99646.31
2022-12-28T03:03:48.018Z,99660.53
2022-12-28T03:07:02.773Z,99641.06
2022-12-28T03:09:52.384Z,99653.56
2022-12-28T03:12:53.574Z,99645.31
2022-12-28T03:15:41.561Z,99649.50
2022-12-28T03:18:49.495Z,99638.03
2022-12-28T03:21:56.126Z,99633.38
2022-12-28T03:25:04.126Z,99642.72
2022-12-28T03:28:10.391Z,99631.28
2022-12-28T03:31:09.313Z,99633.22
2022-12-28T03:34:07.053Z,99619.81
2022-12-28T03:37:17.111Z,99628.75
2022-12-28T03:40:42.161Z,99616.66
2022-12-28T03:43:41.713Z,99620.47
2022-12-28T03:46:39.866Z,99611.66
2022-12-28T03:49:28.387Z,99608.47
2022-12-28T03:52:16.485Z,99612.25
2022-12-28T03:55:05.535Z,99609.50
2022-12-28T03:57:52.548Z,99603.34
2022-12-28T04:00:43.132Z,99607.03
2022-12-28T04:03:30.080Z,99607.03
2022-12-28T04:06:19.623Z,99603.41
2022-12-28T04:09:06.377Z,99608.16
2022-12-28T04:11:57.306Z,99605.09
2022-12-28T04:14:56.891Z,99595.97
2022-12-28T04:17:43.439Z,99592.91
2022-12-28T04:20:29.979Z,99582.63
2022-12-28T04:23:16.707Z,99570.91
2022-12-28T04:26:06.333Z,99565.28
2022-12-28T04:28:52.951Z,99562.47
2022-12-28T04:32:00.865Z,99558.19
2022-12-28T04:34:48.912Z,99561.81
2022-12-28T04:37:37.889Z,99546.91
2022-12-28T04:40:24.341Z,99562.16
2022-12-28T04:43:10.728Z,99563.94
2022-12-28T04:45:59.046Z,99564.31
2022-12-28T04:48:45.626Z,99567.59
2022-12-28T04:51:31.880Z,99559.19
2022-12-28T04:54:18.527Z,99521.00
2022-12-28T04:57:04.747Z,99556.44
2022-12-28T04:59:51.158Z,99516.41
2022-12-28T05:02:37.710Z,99550.38
2022-12-28T05:05:24.348Z,99548.06
2022-12-28T05:08:10.425Z,99543.88
2022-12-28T05:11:00.479Z,99518.97
2022-12-28T05:13:47.577Z,99541.19
2022-12-28T05:16:33.731Z,99543.03
2022-12-28T05:19:20.454Z,99540.69
2022-12-28T05:22:11.856Z,99536.25
2022-12-28T05:24:58.124Z,99549.50
2022-12-28T05:27:44.553Z,99540.44
2022-12-28T05:30:31.034Z,99558.53
2022-12-28T05:33:17.738Z,99550.03
2022-12-28T05:36:13.262Z,99541.13
2022-12-28T05:38:59.759Z,99510.66
2022-12-28T05:41:46.022Z,99526.53
2022-12-28T05:44:32.761Z,99532.53
2022-12-28T05:47:18.948Z,99531.16
2022-12-28T05:50:05.806Z,99531.25
2022-12-28T05:52:52.375Z,99534.44
2022-12-28T05:55:38.788Z,99526.03
2022-12-28T05:58:25.271Z,99516.53
2022-12-28T06:01:15.802Z,99518.41
2022-12-28T06:04:04.756Z,99484.81
2022-12-28T06:06:51.357Z,99512.78
2022-12-28T06:09:37.729Z,99510.81
2022-12-28T06:12:24.272Z,99503.63
2022-12-28T06:15:10.989Z,99487.97
2022-12-28T06:17:57.370Z,99498.03
2022-12-28T06:20:44.055Z,99496.25
2022-12-28T06:23:30.437Z,99503.84
2022-12-28T06:26:20.397Z,99502.59
2022-12-28T06:29:06.906Z,99492.38
2022-12-28T06:31:54.679Z,99495.00
2022-12-28T06:34:40.929Z,99475.25
2022-12-28T06:37:27.451Z,99481.41
2022-12-28T06:40:13.957Z,99459.59
2022-12-28T06:43:00.059Z,99489.03
2022-12-28T06:45:56.897Z,99489.31
2022-12-28T06:48:44.190Z,99481.78
2022-12-28T06:51:36.002Z,99475.72
2022-12-28T06:54:22.276Z,99472.06
2022-12-28T06:57:08.598Z,99470.75
2022-12-28T06:59:55.080Z,99462.75
2022-12-28T07:02:41.640Z,99469.44
2022-12-28T07:05:28.122Z,99473.69
2022-12-28T07:08:14.600Z,99462.78
2022-12-28T07:11:21.439Z,99469.63
2022-12-28T07:14:08.130Z,99464.38
2022-12-28T07:16:54.776Z,99464.97
2022-12-28T07:19:41.116Z,99439.03
2022-12-28T07:22:27.630Z,99444.53
2022-12-28T07:25:14.233Z,99413.72
2022-12-28T07:28:00.449Z,99456.34
2022-12-28T07:30:46.663Z,99453.53
2022-12-28T07:33:34.288Z,99456.97
2022-12-28T07:36:21.381Z,99443.28
2022-12-28T07:39:07.795Z,99452.09
2022-12-28T07:41:54.039Z,99450.44
2022-12-28T07:44:49.066Z,99440.81
2022-12-28T07:47:35.806Z,99445.38
2022-12-28T07:50:22.036Z,99436.84
2022-12-28T07:53:08.480Z,99438.66
2022-12-28T07:55:59.062Z,99436.50
2022-12-28T07:58:54.418Z,99424.44
2022-12-28T08:01:40.923Z,99409.97
2022-12-28T08:04:27.469Z,99426.72
2022-12-28T08:07:13.815Z,99425.97
2022-12-28T08:10:00.200Z,99428.00
2022-12-28T08:12:46.429Z,99432.38
2022-12-28T08:15:33.108Z,99428.31
2022-12-28T08:18:19.335Z,99419.19
2022-12-28T08:21:17.687Z,99433.59
2022-12-28T08:24:05.556Z,99425.81
2022-12-28T08:26:52.104Z,99413.03
2022-12-28T08:29:38.574Z,99398.81
2022-12-28T08:32:25.084Z,99422.13
2022-12-28T08:35:11.576Z,99388.41
2022-12-28T08:37:58.263Z,99417.22
2022-12-28T08:40:44.514Z,99412.16
2022-12-28T08:43:56.371Z,99419.94
2022-12-28T08:46:43.135Z,99422.53
2022-12-28T08:49:29.576Z,99407.72
2022-12-28T08:52:16.283Z,99400.88
2022-12-28T08:55:02.344Z,99406.91
2022-12-28T08:57:48.784Z,99412.94
2022-12-28T09:00:35.396Z,99407.88
2022-12-28T09:03:21.758Z,99402.06
2022-12-28T09:06:11.121Z,99401.91
2022-12-28T09:09:06.644Z,99403.72
2022-12-28T09:11:53.330Z,99390.84
2022-12-28T09:14:39.507Z,99401.44
2022-12-28T09:17:25.973Z,99393.97
2022-12-28T09:20:12.617Z,99401.75
2022-12-28T09:22:58.811Z,99389.69
2022-12-28T09:25:45.253Z,99396.13
2022-12-28T09:28:32.155Z,99397.66
2022-12-28T09:31:21.150Z,99377.88
2022-12-28T09:37:17.770Z,99400.72
2022-12-28T09:40:05.485Z,99396.50
2022-12-28T09:42:52.489Z,99380.22
2022-12-28T09:45:39.385Z,99398.66
2022-12-28T09:48:27.710Z,99372.00
2022-12-28T09:51:15.086Z,99388.53
2022-12-28T09:54:03.719Z,99388.63
2022-12-28T09:56:51.369Z,99342.03
2022-12-28T09:59:37.612Z,99387.19
2022-12-28T10:02:31.328Z,99368.13
2022-12-28T10:05:18.531Z,99381.19
2022-12-28T10:08:05.414Z,99370.03
2022-12-28T10:10:53.098Z,99374.38
2022-12-28T10:13:55.995Z,99376.19
2022-12-28T10:16:48.333Z,99375.31
2022-12-28T10:19:35.215Z,99358.03
2022-12-28T10:22:23.372Z,99354.53
2022-12-28T10:25:21.957Z,99359.78
2022-12-28T10:28:11.283Z,99338.13
2022-12-28T10:31:04.020Z,99350.41
2022-12-28T10:33:52.166Z,99305.53
2022-12-28T10:36:39.849Z,99320.50
2022-12-28T10:39:31.313Z,99315.41
2022-12-28T10:42:24.706Z,99335.47
2022-12-28T10:45:20.165Z,99320.88
2022-12-28T10:48:18.552Z,99325.25
2022-12-28T10:51:20.416Z,99326.22
2022-12-28T10:54:28.189Z,99315.97
2022-12-28T10:57:28.442Z,99303.13
2022-12-28T11:00:22.168Z,99311.88
2022-12-28T11:03:19.662Z,99290.28
2022-12-28T11:06:24.224Z,99292.94
2022-12-28T11:09:12.820Z,99232.50
2022-12-28T11:12:22.251Z,99288.78
2022-12-28T11:15:15.645Z,99289.69
2022-12-28T11:18:14.647Z,99263.81
2022-12-28T11:21:01.586Z,99276.81
2022-12-28T11:23:53.177Z,99264.81
2022-12-28T11:26:44.397Z,99266.53
2022-12-28T11:29:30.632Z,99263.09
2022-12-28T11:32:26.173Z,99248.50
2022-12-28T11:35:22.564Z,99239.00
2022-12-28T11:38:31.708Z,99226.09
2022-12-28T11:41:30.161Z,99253.75
2022-12-28T11:44:40.741Z,99240.00
2022-12-28T11:47:35.586Z,99233.91
2022-12-28T11:50:34.524Z,99233.03
2022-12-28T11:53:42.448Z,99222.59
2022-12-28T11:56:43.825Z,99219.97
2022-12-28T11:59:32.581Z,99218.22
2022-12-28T12:02:28.108Z,99211.31
2022-12-28T12:05:39.561Z,99214.78
2022-12-28T12:08:32.250Z,99213.84
2022-12-28T12:11:18.831Z,99208.69
2022-12-28T12:14:07.809Z,99181.03
2022-12-28T12:17:03.149Z,99187.09
2022-12-28T12:20:02.338Z,99193.06
2022-12-28T12:22:52.879Z,99168.03
2022-12-28T12:25:39.278Z,99188.72
2022-12-28T12:28:31.600Z,99186.13
2022-12-28T12:31:30.675Z,99167.22
2022-12-28T12:34:29.135Z,99168.06
2022-12-28T12:38:03.813Z,99172.44
2022-12-28T12:41:26.921Z,99165.56
2022-12-28T12:44:18.759Z,99169.06
2022-12-28T12:47:32.809Z,99162.19
2022-12-28T12:50:21.951Z,99156.97
2022-12-28T12:53:48.697Z,99151.81
2022-12-28T12:57:00.585Z,99145.00
2022-12-28T13:00:05.791Z,99145.00
2022-12-28T13:03:16.704Z,99145.03
2022-12-28T13:06:05.864Z,99139.91
2022-12-28T13:09:04.798Z,99125.22
2022-12-28T13:11:52.559Z,99138.19
2022-12-28T13:14:39.297Z,99130.38
2022-12-28T13:17:26.433Z,99126.94
2022-12-28T13:20:21.282Z,99114.84
2022-12-28T13:23:17.179Z,99120.88
2022-12-28T13:26:03.738Z,99117.44
2022-12-28T13:29:02.310Z,99110.53
2022-12-28T13:31:51.528Z,99101.91
2022-12-28T13:34:38.810Z,99054.47
2022-12-28T13:37:25.539Z,99083.75
2022-12-28T13:40:15.926Z,99084.63
2022-12-28T13:43:08.083Z,99085.47
2022-12-28T13:46:02.534Z,99074.22
2022-12-28T13:48:57.915Z,99084.56
2022-12-28T13:51:49.759Z,99084.53
2022-12-28T13:54:43.625Z,99081.09
2022-12-28T13:57:52.651Z,99078.47
2022-12-28T14:00:43.018Z,99078.47
2022-12-28T14:03:34.547Z,99051.69
2022-12-28T14:06:24.123Z,99081.84
2022-12-28T14:09:13.264Z,99051.63
2022-12-28T14:12:00.047Z,99074.13
2022-12-28T14:14:47.344Z,99074.94
2022-12-28T14:17:37.816Z,99076.69
2022-12-28T14:20:24.470Z,99063.72
2022-12-28T14:23:28.550Z,99052.56
2022-12-28T14:26:22.546Z,99053.38
2022-12-28T14:29:13.841Z,99050.03
2022-12-28T14:32:08.268Z,99066.41
2022-12-28T14:35:00.277Z,99062.06
2022-12-28T14:37:52.437Z,99058.63
2022-12-28T14:40:39.839Z,99057.72
2022-12-28T14:43:29.867Z,99046.50
2022-12-28T14:46:36.644Z,99050.81
2022-12-28T14:49:29.250Z,99049.94
2022-12-28T14:52:18.507Z,99041.31
2022-12-28T14:55:21.992Z,99031.81
2022-12-28T14:58:21.557Z,99043.88
2022-12-28T15:01:12.270Z,99017.94
2022-12-28T15:04:01.971Z,99034.31
2022-12-28T15:06:48.607Z,99014.38
2022-12-28T15:09:35.131Z,99041.94
2022-12-28T15:12:22.897Z,98997.03
2022-12-28T15:15:10.282Z,99034.94
2022-12-28T15:17:56.959Z,99022.00
2022-12-28T15:20:43.145Z,99019.38
2022-12-28T15:23:29.612Z,98997.72
2022-12-28T15:26:16.427Z,99018.34
2022-12-28T15:29:06.070Z,99013.19
2022-12-28T15:31:52.433Z,99019.09
2022-12-28T15:34:39.176Z,99014.75
2022-12-28T15:37:25.795Z,99010.47
2022-12-28T15:40:12.459Z,99018.16
2022-12-28T15:42:58.844Z,99005.28
2022-12-28T15:45:55.987Z,99002.63
2022-12-28T15:48:47.451Z,99018.97
2022-12-28T15:51:34.396Z,99012.13
2022-12-28T15:54:21.112Z,99013.84
2022-12-28T15:57:07.613Z,99007.72
2022-12-28T15:59:55.907Z,99012.03
2022-12-28T16:02:42.271Z,98999.88
2022-12-28T16:05:29.072Z,98997.19
2022-12-28T16:08:15.726Z,99003.19
2022-12-28T16:11:14.362Z,98991.13
2022-12-28T16:14:03.376Z,98986.94
2022-12-28T16:16:50.125Z,98993.00
2022-12-28T16:19:36.720Z,98988.69
2022-12-28T16:22:23.187Z,98984.31
2022-12-28T16:25:09.896Z,98997.31
2022-12-28T16:27:56.520Z,98991.25
2022-12-28T16:30:49.356Z,98948.09
2022-12-28T16:33:37.605Z,98980.97
2022-12-28T16:36:24.258Z,98981.75
2022-12-28T16:39:13.653Z,98959.28
2022-12-28T16:41:59.984Z,98973.19
2022-12-28T16:44:46.142Z,98944.81
2022-12-28T16:47:32.785Z,98969.88
2022-12-28T16:50:19.317Z,98967.31
2022-12-28T16:53:05.741Z,98958.63
2022-12-28T16:55:52.091Z,98943.78
2022-12-28T16:58:38.512Z,98968.94
2022-12-28T17:01:25.261Z,98960.44
2022-12-28T17:04:12.281Z,98965.47
2022-12-28T17:06:59.524Z,98960.22
2022-12-28T17:09:50.164Z,98961.81
2022-12-28T17:12:36.708Z,98950.50
2022-12-28T17:15:23.736Z,98956.59
2022-12-28T17:18:10.802Z,98954.72
2022-12-28T17:21:01.831Z,98952.88
2022-12-28T17:23:53.259Z,98954.44
2022-12-28T17:26:39.641Z,98939.84
2022-12-28T17:29:26.077Z,98918.97
2022-12-28T17:32:12.469Z,98930.31
2022-12-28T17:34:59.096Z,98923.22
2022-12-28T17:37:45.602Z,98931.69
2022-12-28T17:40:32.056Z,98926.59
2022-12-28T17:43:18.569Z,98929.06
2022-12-28T17:46:05.476Z,98922.22
2022-12-28T17:48:56.928Z,98913.78
2022-12-28T17:51:44.411Z,98914.78
2022-12-28T17:54:30.705Z,98903.88
2022-12-28T17:57:17.637Z,98893.66
2022-12-28T18:00:04.420Z,98884.28
2022-12-28T18:02:59.190Z,98879.19
2022-12-28T18:05:51.133Z,98851.78
2022-12-28T18:08:37.314Z,98865.78
2022-12-28T18:11:23.862Z,98863.13
2022-12-28T18:14:13.332Z,98852.00
2022-12-28T18:16:59.566Z,98852.09
2022-12-28T18:19:46.261Z,98866.66
2022-12-28T18:22:32.581Z,98847.06
2022-12-28T18:25:19.075Z,98827.16
2022-12-28T18:28:05.737Z,98835.72
2022-12-28T18:30:55.356Z,98847.09
2022-12-28T18:33:44.847Z,98835.91
2022-12-28T18:36:31.291Z,98810.88
2022-12-28T18:39:17.565Z,98831.63
2022-12-28T18:42:04.140Z,98833.38
2022-12-28T18:44:50.702Z,98825.66
2022-12-28T18:47:37.052Z,98802.47
2022-12-28T18:50:23.760Z,98793.78
2022-12-28T18:53:09.943Z,98815.41
2022-12-28T18:56:16.968Z,98807.72
2022-12-28T18:59:03.577Z,98804.28
2022-12-28T19:02:07.444Z,98808.56
2022-12-28T19:04:54.725Z,98802.59
2022-12-28T19:07:45.740Z,98774.97
2022-12-28T19:10:35.457Z,98796.53
2022-12-28T19:13:21.798Z,98796.53
2022-12-28T19:16:17.348Z,98792.25
2022-12-28T19:19:03.648Z,98764.72
2022-12-28T19:21:56.645Z,98788.00
2022-12-28T19:24:44.964Z,98788.78
2022-12-28T19:27:31.133Z,98777.59
2022-12-28T19:30:17.499Z,98780.19
2022-12-28T19:33:03.681Z,98758.69
2022-12-28T19:35:49.996Z,98768.06
2022-12-28T19:38:36.449Z,98782.75
2022-12-28T19:41:23.369Z,98774.09
2022-12-28T19:44:09.670Z,98778.38
2022-12-28T19:46:56.392Z,98778.38
2022-12-28T19:49:45.452Z,98778.34
2022-12-28T19:52:33.098Z,98776.59
2022-12-28T19:55:19.280Z,98749.84
2022-12-28T19:58:05.841Z,98780.00
2022-12-28T20:00:52.889Z,98751.56
2022-12-28T20:03:39.965Z,98762.78
2022-12-28T20:06:37.672Z,98765.38
2022-12-28T20:09:23.913Z,98761.06
2022-12-28T20:12:10.399Z,98758.50
2022-12-28T20:14:57.041Z,98741.28
2022-12-28T20:17:47.327Z,98751.56
2022-12-28T20:21:00.843Z,98746.41
2022-12-28T20:23:40.637Z,98730.84
2022-12-28T20:26:28.934Z,98755.84
2022-12-28T20:29:16.347Z,98744.66
2022-12-28T20:32:03.146Z,98742.91
2022-12-28T20:34:49.862Z,98743.81
2022-12-28T20:37:35.866Z,98742.88
2022-12-28T20:40:22.083Z,98735.09
2022-12-28T20:43:24.384Z,98721.34
2022-12-28T20:46:11.779Z,98728.34
2022-12-28T20:48:59.098Z,98714.44
2022-12-28T20:51:47.817Z,98717.03
2022-12-28T20:54:34.420Z,98726.53
2022-12-28T20:57:20.586Z,98718.94
2022-12-28T21:00:08.386Z,98721.44
2022-12-28T21:02:54.960Z,98728.34
2022-12-28T21:05:41.415Z,98714.63
2022-12-28T21:08:30.844Z,98715.44
2022-12-28T21:11:17.954Z,98707.78
2022-12-28T21:14:04.418Z,98710.41
2022-12-28T21:16:51.163Z,98704.44
2022-12-28T21:19:37.815Z,98680.31
2022-12-28T21:22:24.428Z,98694.09
2022-12-28T21:25:11.248Z,98693.25
2022-12-28T21:27:59.262Z,98702.78
2022-12-28T21:30:53.660Z,98679.53
2022-12-28T21:33:41.173Z,98690.75
2022-12-28T21:36:27.748Z,98691.66
2022-12-28T21:39:14.206Z,98680.53
2022-12-28T21:42:00.656Z,98690.88
2022-12-28T21:44:47.009Z,98682.25
2022-12-28T21:47:34.824Z,98651.34
2022-12-28T21:50:26.363Z,98675.44
2022-12-28T21:53:12.740Z,98677.16
2022-12-28T21:55:59.477Z,98667.75
2022-12-28T21:58:46.330Z,98661.72
2022-12-28T22:01:52.066Z,98672.84
2022-12-28T22:05:02.561Z,98672.75
2022-12-28T22:08:13.440Z,98668.47
2022-12-28T22:11:18.595Z,98662.41
2022-12-28T22:14:06.427Z,98664.06
2022-12-28T22:16:52.963Z,98663.22
2022-12-28T22:19:39.774Z,98664.03
2022-12-28T22:22:26.312Z,98661.50
2022-12-28T22:25:13.879Z,98660.59
2022-12-28T22:28:01.590Z,98644.38
2022-12-28T22:30:47.961Z,98651.34
2022-12-28T22:33:35.108Z,98654.00
2022-12-28T22:36:21.391Z,98649.69
2022-12-28T22:39:07.977Z,98661.75
2022-12-28T22:41:54.393Z,98638.56
2022-12-28T22:44:41.507Z,98662.66
2022-12-28T22:47:28.357Z,98647.19
2022-12-28T22:50:17.843Z,98646.31
2022-12-28T22:53:04.391Z,98645.50
2022-12-28T22:56:01.448Z,98644.59
2022-12-28T22:58:48.730Z,98653.19
2022-12-28T23:01:35.423Z,98634.34
2022-12-28T23:04:22.064Z,98634.31
2022-12-28T23:07:08.942Z,98640.34
2022-12-28T23:09:57.384Z,98632.59
2022-12-28T23:12:44.190Z,98634.31
2022-12-28T23:15:30.797Z,98630.91
2022-12-28T23:18:43.506Z,98630.91
2022-12-28T23:21:48.772Z,98630.91
2022-12-28T23:24:54.083Z,98630.88
2022-12-28T23:27:42.895Z,98635.19
2022-12-28T23:30:29.565Z,98629.19
2022-12-28T23:33:17.496Z,98625.75
2022-12-28T23:36:04.532Z,98622.28
2022-12-28T23:38:51.126Z,98624.88
2022-12-28T23:41:49.636Z,98624.00
2022-12-28T23:44:35.802Z,98614.59
2022-12-28T23:47:22.370Z,98615.44
2022-12-28T23:50:09.382Z,98610.28
2022-12-28T23:52:55.670Z,98613.72
2022-12-28T23:55:42.085Z,98611.13
2022-12-28T23:58:28.743Z,98586.22
